createdAt,value
2023-02-18T00:04:37.496Z,1.60
2023-02-18T00:09:39.670Z,1.30
2023-02-18T00:14:40.500Z,1.38
2023-02-18T00:19:42.525Z,1.23
2023-02-18T00:24:43.200Z,1.02
2023-02-18T00:29:43.906Z,1.45
2023-02-18T00:34:45.935Z,1.83
2023-02-18T00:39:46.625Z,1.63
2023-02-18T00:44:47.622Z,2.03
2023-02-18T00:49:49.615Z,1.40
2023-02-18T00:54:50.405Z,1.45
2023-02-18T00:59:51.125Z,1.65
2023-02-18T01:04:53.700Z,1.42
2023-02-18T01:09:54.532Z,1.77
2023-02-18T01:14:55.429Z,1.58
2023-02-18T01:19:57.529Z,1.95
2023-02-18T01:24:58.217Z,1.92
2023-02-18T01:30:00.222Z,1.77
2023-02-18T01:35:03.498Z,1.52
2023-02-18T01:40:05.492Z,1.38
2023-02-18T01:45:53.185Z,1.88
2023-02-18T01:50:58.004Z,1.50
2023-02-18T01:56:00.598Z,1.73
2023-02-18T02:01:01.469Z,1.60
2023-02-18T02:06:03.520Z,1.70
2023-02-18T02:11:13.538Z,1.73
2023-02-18T02:16:22.844Z,1.98
2023-02-18T02:21:57.665Z,1.60
2023-02-18T02:27:23.018Z,2.03
2023-02-18T02:32:44.119Z,1.52
2023-02-18T02:37:54.358Z,1.48
2023-02-18T02:43:10.816Z,1.35
2023-02-18T02:48:20.335Z,1.30
2023-02-18T02:53:26.019Z,1.70
2023-02-18T02:58:27.029Z,1.40
2023-02-18T03:03:50.367Z,1.23
2023-02-18T03:08:59.079Z,1.15
2023-02-18T03:14:10.458Z,1.20
2023-02-18T03:19:21.789Z,1.00
2023-02-18T03:24:28.756Z,0.88
2023-02-18T03:29:30.884Z,1.50
2023-02-18T03:34:35.107Z,1.20
2023-02-18T03:39:40.250Z,1.25
2023-02-18T03:44:40.894Z,1.15
2023-02-18T03:49:41.697Z,1.67
2023-02-18T03:54:43.693Z,1.38
2023-02-18T03:59:45.055Z,1.95
2023-02-18T04:04:45.698Z,1.60
2023-02-18T04:09:47.725Z,1.50
2023-02-18T04:14:48.398Z,2.08
2023-02-18T04:19:49.291Z,1.60
2023-02-18T04:24:51.300Z,1.75
2023-02-18T04:29:51.984Z,1.42
2023-02-18T04:34:52.898Z,1.35
2023-02-18T04:39:54.898Z,2.42
2023-02-18T04:44:55.551Z,1.70
2023-02-18T04:49:56.311Z,1.92
2023-02-18T04:54:58.268Z,1.70
2023-02-18T04:59:58.911Z,2.17
2023-02-18T05:04:59.960Z,2.20
2023-02-18T05:10:01.967Z,3.00
2023-02-18T05:15:02.655Z,2.63
2023-02-18T05:20:03.840Z,3.22
2023-02-18T05:25:06.671Z,2.65
2023-02-18T05:30:08.700Z,3.10
2023-02-18T05:35:09.902Z,2.97
2023-02-18T05:40:13.416Z,2.58
2023-02-18T05:45:14.141Z,3.30
2023-02-18T05:50:14.838Z,2.50
2023-02-18T05:55:16.868Z,3.10
2023-02-18T06:00:18.683Z,3.00
2023-02-18T06:05:19.432Z,2.72
2023-02-18T06:10:21.403Z,3.20
2023-02-18T06:15:22.069Z,3.40
2023-02-18T06:20:22.692Z,3.70
2023-02-18T06:25:24.754Z,4.05
2023-02-18T06:30:25.408Z,4.60
2023-02-18T06:35:26.075Z,5.68
2023-02-18T06:40:28.149Z,5.30
2023-02-18T06:45:28.840Z,5.00
2023-02-18T06:50:29.488Z,5.35
2023-02-18T06:55:31.539Z,5.90
2023-02-18T07:00:32.696Z,6.85
2023-02-18T07:05:33.456Z,6.80
2023-02-18T07:10:35.504Z,6.72
2023-02-18T07:15:36.284Z,7.45
2023-02-18T07:20:36.958Z,7.50
2023-02-18T07:25:38.977Z,8.23
2023-02-18T07:30:39.797Z,8.05
2023-02-18T07:35:40.469Z,8.65
2023-02-18T07:40:42.465Z,7.95
2023-02-18T07:45:43.226Z,8.18
2023-02-18T07:50:46.021Z,10.07
2023-02-18T07:55:51.004Z,9.15
2023-02-18T08:00:53.565Z,9.15
2023-02-18T08:05:54.508Z,9.35
2023-02-18T08:11:01.036Z,9.57
2023-02-18T08:16:03.332Z,9.35
2023-02-18T08:21:04.097Z,9.80
2023-02-18T08:26:06.966Z,9.93
2023-02-18T08:31:18.517Z,11.00
2023-02-18T08:36:19.727Z,9.77
2023-02-18T08:41:21.752Z,10.27
2023-02-18T08:46:25.023Z,9.40
2023-02-18T08:51:34.325Z,10.27
2023-02-18T08:56:36.378Z,10.13
2023-02-18T09:01:37.126Z,9.73
2023-02-18T09:06:39.245Z,9.70
2023-02-18T09:11:41.356Z,10.15
2023-02-18T09:16:42.771Z,10.10
2023-02-18T09:21:43.710Z,10.38
2023-02-18T09:26:45.784Z,10.15
2023-02-18T09:31:46.757Z,10.45
2023-02-18T09:36:47.556Z,9.18
2023-02-18T09:41:52.538Z,9.30
2023-02-18T09:46:57.031Z,8.27
2023-02-18T09:52:03.190Z,9.10
2023-02-18T09:57:07.938Z,7.50
2023-02-18T10:02:16.988Z,8.43
2023-02-18T10:07:27.436Z,8.30
2023-02-18T10:12:34.998Z,6.43
2023-02-18T10:17:38.776Z,2.03
2023-02-18T10:22:40.228Z,1.20
2023-02-18T10:27:42.290Z,1.13
2023-02-18T10:32:45.718Z,0.88
2023-02-18T10:38:03.267Z,0.90
2023-02-18T10:43:13.798Z,0.77
2023-02-18T10:48:25.407Z,0.70
2023-02-18T10:53:34.858Z,0.73
2023-02-18T10:58:42.943Z,0.40
2023-02-18T11:03:45.858Z,0.70
2023-02-18T11:08:48.034Z,0.80
2023-02-18T11:13:55.809Z,0.65
2023-02-18T11:18:56.512Z,0.70
2023-02-18T11:23:58.649Z,0.40
2023-02-18T11:29:04.881Z,0.43
2023-02-18T11:34:06.027Z,0.47
2023-02-18T11:39:14.819Z,0.40
2023-02-18T11:44:23.195Z,0.40
2023-02-18T11:49:26.012Z,0.47
2023-02-18T11:54:30.104Z,0.40
2023-02-18T11:59:35.842Z,0.40
2023-02-18T12:04:43.897Z,0.40
2023-02-18T12:09:48.952Z,0.50
2023-02-18T12:14:53.012Z,0.60
2023-02-18T12:20:37.775Z,0.63
2023-02-18T12:25:45.027Z,0.70
2023-02-18T12:31:07.635Z,0.77
2023-02-18T12:36:17.554Z,0.70
2023-02-18T12:41:34.280Z,0.80
2023-02-18T12:46:50.135Z,0.90
2023-02-18T12:52:02.466Z,1.20
2023-02-18T12:57:23.312Z,1.23
2023-02-18T13:02:44.543Z,1.10
2023-02-18T13:07:59.866Z,1.58
2023-02-18T13:13:04.692Z,1.20
2023-02-18T13:18:13.615Z,0.90
2023-02-18T13:23:19.733Z,0.75
2023-02-18T13:28:27.498Z,1.10
2023-02-18T13:33:38.817Z,0.85
2023-02-18T13:38:54.109Z,0.73
2023-02-18T13:43:55.028Z,0.88
2023-02-18T13:49:07.082Z,0.73
2023-02-18T13:54:19.730Z,0.70
2023-02-18T13:59:24.599Z,0.70
2023-02-18T14:04:55.216Z,0.60
2023-02-18T14:09:57.096Z,0.90
2023-02-18T14:14:59.913Z,0.80
2023-02-18T14:20:44.496Z,0.60
2023-02-18T14:25:55.311Z,0.82
2023-02-18T14:30:56.217Z,0.65
2023-02-18T14:36:09.132Z,0.80
2023-02-18T14:41:29.590Z,0.77
2023-02-18T14:46:40.849Z,0.90
2023-02-18T14:51:44.435Z,0.70
2023-02-18T14:56:55.182Z,0.47
2023-02-18T15:01:57.418Z,0.75
2023-02-18T15:07:05.121Z,0.68
2023-02-18T15:12:10.274Z,0.70
2023-02-18T15:17:16.389Z,0.70
2023-02-18T15:22:20.091Z,0.40
2023-02-18T15:27:23.419Z,0.50
2023-02-18T15:32:27.922Z,0.57
2023-02-18T15:37:32.360Z,0.70
2023-02-18T15:42:34.995Z,0.45
2023-02-18T15:47:35.725Z,0.65
2023-02-18T15:52:40.074Z,0.40
2023-02-18T15:57:42.478Z,0.32
2023-02-18T16:02:55.827Z,0.30
2023-02-18T16:08:02.175Z,0.75
2023-02-18T16:13:03.737Z,0.50
2023-02-18T16:18:07.108Z,0.47
2023-02-18T16:23:14.065Z,0.35
2023-02-18T16:28:19.535Z,0.30
2023-02-18T16:33:20.207Z,0.55
2023-02-18T16:38:25.298Z,0.50
2023-02-18T16:43:33.123Z,0.30
2023-02-18T16:48:36.884Z,0.70
2023-02-18T16:53:39.928Z,0.40
2023-02-18T16:58:40.740Z,0.40
2023-02-18T17:03:41.420Z,0.50
2023-02-18T17:08:43.532Z,0.40
2023-02-18T17:13:44.216Z,0.45
2023-02-18T17:18:45.584Z,0.40
2023-02-18T17:23:48.483Z,0.35
2023-02-18T17:28:49.577Z,0.47
2023-02-18T17:33:50.425Z,0.75
2023-02-18T17:38:52.588Z,0.40
2023-02-18T17:43:53.626Z,0.60
2023-02-18T17:48:54.322Z,0.40
2023-02-18T17:53:57.028Z,0.73
2023-02-18T17:58:57.694Z,0.60
2023-02-18T18:03:58.441Z,0.70
2023-02-18T18:09:00.430Z,0.50
2023-02-18T18:14:01.367Z,0.70
2023-02-18T18:19:02.036Z,0.85
2023-02-18T18:24:04.911Z,0.82
2023-02-18T18:29:05.563Z,0.60
2023-02-18T18:34:06.440Z,0.75
2023-02-18T18:39:08.995Z,1.00
2023-02-18T18:44:11.865Z,0.82
2023-02-18T18:49:12.546Z,1.27
2023-02-18T18:54:14.596Z,1.02
2023-02-18T18:59:15.253Z,1.08
2023-02-18T19:04:16.034Z,1.00
2023-02-18T19:09:18.107Z,1.33
2023-02-18T19:14:18.822Z,1.38
2023-02-18T19:19:21.018Z,1.08
2023-02-18T19:24:23.082Z,0.80
2023-02-18T19:29:23.849Z,1.00
2023-02-18T19:34:24.728Z,1.10
2023-02-18T19:39:26.925Z,0.95
2023-02-18T19:44:27.609Z,0.80
2023-02-18T19:49:29.147Z,0.90
2023-02-18T19:54:31.312Z,0.70
2023-02-18T19:59:32.034Z,0.70
2023-02-18T20:04:32.829Z,1.02
2023-02-18T20:09:34.833Z,1.27
2023-02-18T20:14:36.145Z,1.05
2023-02-18T20:19:36.826Z,0.98
2023-02-18T20:24:40.120Z,0.90
2023-02-18T20:29:40.814Z,1.05
2023-02-18T20:34:41.510Z,0.98
2023-02-18T20:39:43.616Z,1.08
2023-02-18T20:44:44.740Z,1.73
2023-02-18T20:49:46.708Z,1.30
2023-02-18T20:54:48.791Z,1.08
2023-02-18T20:59:49.529Z,1.25
2023-02-18T21:04:50.238Z,1.33
2023-02-18T21:09:52.280Z,1.67
2023-02-18T21:14:52.993Z,1.65
2023-02-18T21:19:53.682Z,1.33
2023-02-18T21:24:55.706Z,1.50
2023-02-18T21:29:59.660Z,1.70
2023-02-18T21:35:00.398Z,2.17
2023-02-18T21:40:02.367Z,2.00
2023-02-18T21:45:04.312Z,1.67
2023-02-18T21:50:05.206Z,1.92
2023-02-18T21:55:08.467Z,2.42
2023-02-18T22:00:19.701Z,2.45
2023-02-18T22:05:29.245Z,1.95
2023-02-18T22:16:16.262Z,1.90
2023-02-18T22:21:17.180Z,1.95
2023-02-18T22:26:18.237Z,2.10
2023-02-18T22:31:21.840Z,2.35
2023-02-18T22:36:24.151Z,2.03
2023-02-18T22:41:26.371Z,1.90
2023-02-18T22:46:29.852Z,2.63
2023-02-18T22:51:32.425Z,2.90
2023-02-18T22:56:33.040Z,3.20
2023-02-18T23:01:37.076Z,3.10
2023-02-18T23:06:38.919Z,2.78
2023-02-18T23:11:39.515Z,3.05
2023-02-18T23:16:58.830Z,2.80
2023-02-18T23:21:59.588Z,2.72
2023-02-18T23:27:00.166Z,2.45
2023-02-18T23:32:02.474Z,2.17
2023-02-18T23:37:03.069Z,2.10
2023-02-18T23:42:03.699Z,2.78
2023-02-18T23:47:05.698Z,2.15
2023-02-18T23:52:06.451Z,2.58
2023-02-18T23:57:07.011Z,2.00
